sensor_id;sensor_type;location;lat;lon;timestamp;P1;durP1;ratioP1;P2;durP2;ratioP2
19903;SDS011;10114;50.970;4.962;2023-08-21T00:02:15;6.07;;;2.30;;
19903;SDS011;10114;50.970;4.962;2023-08-21T00:04:41;12.00;;;3.88;;
19903;SDS011;10114;50.970;4.962;2023-08-21T00:07:07;8.85;;;2.30;;
19903;SDS011;10114;50.970;4.962;2023-08-21T00:09:34;9.27;;;2.38;;
19903;SDS011;10114;50.970;4.962;2023-08-21T00:12:00;7.75;;;2.17;;
19903;SDS011;10114;50.970;4.962;2023-08-21T00:14:26;9.60;;;2.88;;
19903;SDS011;10114;50.970;4.962;2023-08-21T00:16:52;7.43;;;2.58;;
19903;SDS011;10114;50.970;4.962;2023-08-21T00:19:18;8.75;;;2.28;;
19903;SDS011;10114;50.970;4.962;2023-08-21T00:21:44;7.90;;;2.08;;
19903;SDS011;10114;50.970;4.962;2023-08-21T00:24:10;8.50;;;2.13;;
19903;SDS011;10114;50.970;4.962;2023-08-21T00:26:36;9.63;;;2.03;;
19903;SDS011;10114;50.970;4.962;2023-08-21T00:29:02;15.25;;;2.60;;
19903;SDS011;10114;50.970;4.962;2023-08-21T00:31:28;7.78;;;2.25;;
19903;SDS011;10114;50.970;4.962;2023-08-21T00:33:54;6.28;;;1.90;;
19903;SDS011;10114;50.970;4.962;2023-08-21T00:36:20;14.00;;;2.92;;
19903;SDS011;10114;50.970;4.962;2023-08-21T00:38:46;10.02;;;2.60;;
19903;SDS011;10114;50.970;4.962;2023-08-21T00:41:13;7.53;;;2.15;;
19903;SDS011;10114;50.970;4.962;2023-08-21T00:43:39;7.38;;;2.30;;
19903;SDS011;10114;50.970;4.962;2023-08-21T00:46:05;9.25;;;2.40;;
19903;SDS011;10114;50.970;4.962;2023-08-21T00:48:32;7.82;;;2.35;;
19903;SDS011;10114;50.970;4.962;2023-08-21T00:50:58;10.90;;;2.45;;
19903;SDS011;10114;50.970;4.962;2023-08-21T00:53:24;9.18;;;2.70;;
19903;SDS011;10114;50.970;4.962;2023-08-21T00:55:50;6.70;;;2.65;;
19903;SDS011;10114;50.970;4.962;2023-08-21T00:58:17;11.15;;;2.40;;
19903;SDS011;10114;50.970;4.962;2023-08-21T01:00:44;10.13;;;2.42;;
19903;SDS011;10114;50.970;4.962;2023-08-21T01:03:12;10.52;;;2.25;;
19903;SDS011;10114;50.970;4.962;2023-08-21T01:05:38;11.55;;;2.80;;
19903;SDS011;10114;50.970;4.962;2023-08-21T01:13:09;10.63;;;2.90;;
19903;SDS011;10114;50.970;4.962;2023-08-21T01:15:37;9.57;;;2.60;;
19903;SDS011;10114;50.970;4.962;2023-08-21T01:18:04;7.90;;;2.60;;
19903;SDS011;10114;50.970;4.962;2023-08-21T01:20:31;10.27;;;2.10;;
19903;SDS011;10114;50.970;4.962;2023-08-21T01:22:57;8.25;;;2.20;;
19903;SDS011;10114;50.970;4.962;2023-08-21T01:25:29;9.48;;;2.38;;
19903;SDS011;10114;50.970;4.962;2023-08-21T01:27:55;7.05;;;2.55;;
19903;SDS011;10114;50.970;4.962;2023-08-21T01:30:21;10.85;;;2.50;;
19903;SDS011;10114;50.970;4.962;2023-08-21T01:35:13;9.13;;;2.75;;
19903;SDS011;10114;50.970;4.962;2023-08-21T01:37:40;8.48;;;2.67;;
19903;SDS011;10114;50.970;4.962;2023-08-21T01:40:06;8.25;;;2.28;;
19903;SDS011;10114;50.970;4.962;2023-08-21T01:42:32;7.53;;;2.25;;
19903;SDS011;10114;50.970;4.962;2023-08-21T01:44:58;10.95;;;2.65;;
19903;SDS011;10114;50.970;4.962;2023-08-21T01:47:24;8.93;;;2.30;;
19903;SDS011;10114;50.970;4.962;2023-08-21T01:49:51;10.32;;;3.03;;
19903;SDS011;10114;50.970;4.962;2023-08-21T01:52:17;9.02;;;2.60;;
19903;SDS011;10114;50.970;4.962;2023-08-21T01:54:43;9.50;;;3.03;;
19903;SDS011;10114;50.970;4.962;2023-08-21T01:57:09;8.73;;;2.53;;
19903;SDS011;10114;50.970;4.962;2023-08-21T01:59:35;8.60;;;2.45;;
19903;SDS011;10114;50.970;4.962;2023-08-21T02:02:01;11.15;;;3.10;;
19903;SDS011;10114;50.970;4.962;2023-08-21T02:04:27;7.68;;;3.28;;
19903;SDS011;10114;50.970;4.962;2023-08-21T02:06:53;11.52;;;2.85;;
19903;SDS011;10114;50.970;4.962;2023-08-21T02:09:20;8.77;;;2.80;;
19903;SDS011;10114;50.970;4.962;2023-08-21T02:11:46;9.27;;;2.83;;
19903;SDS011;10114;50.970;4.962;2023-08-21T02:14:12;9.00;;;2.47;;
19903;SDS011;10114;50.970;4.962;2023-08-21T02:16:38;7.75;;;3.05;;
19903;SDS011;10114;50.970;4.962;2023-08-21T02:19:04;11.30;;;2.72;;
19903;SDS011;10114;50.970;4.962;2023-08-21T02:21:31;8.27;;;2.60;;
19903;SDS011;10114;50.970;4.962;2023-08-21T02:23:57;9.00;;;2.45;;
19903;SDS011;10114;50.970;4.962;2023-08-21T02:26:23;9.65;;;2.33;;
19903;SDS011;10114;50.970;4.962;2023-08-21T02:28:49;7.68;;;2.55;;
19903;SDS011;10114;50.970;4.962;2023-08-21T02:31:15;7.57;;;2.45;;
19903;SDS011;10114;50.970;4.962;2023-08-21T02:33:41;9.75;;;2.88;;
19903;SDS011;10114;50.970;4.962;2023-08-21T02:36:07;9.80;;;2.55;;
19903;SDS011;10114;50.970;4.962;2023-08-21T02:38:33;7.78;;;2.60;;
19903;SDS011;10114;50.970;4.962;2023-08-21T02:40:59;10.30;;;2.45;;
19903;SDS011;10114;50.970;4.962;2023-08-21T02:43:25;10.07;;;3.35;;
19903;SDS011;10114;50.970;4.962;2023-08-21T02:45:51;8.50;;;2.55;;
19903;SDS011;10114;50.970;4.962;2023-08-21T02:48:17;7.50;;;2.30;;
19903;SDS011;10114;50.970;4.962;2023-08-21T02:50:43;10.60;;;2.40;;
19903;SDS011;10114;50.970;4.962;2023-08-21T02:53:09;14.80;;;3.08;;
19903;SDS011;10114;50.970;4.962;2023-08-21T02:55:35;8.82;;;2.90;;
19903;SDS011;10114;50.970;4.962;2023-08-21T02:58:01;8.23;;;2.50;;
19903;SDS011;10114;50.970;4.962;2023-08-21T03:00:27;9.18;;;2.60;;
19903;SDS011;10114;50.970;4.962;2023-08-21T03:02:53;9.82;;;2.65;;
19903;SDS011;10114;50.970;4.962;2023-08-21T03:05:19;13.90;;;2.85;;
19903;SDS011;10114;50.970;4.962;2023-08-21T03:07:46;9.48;;;2.75;;
19903;SDS011;10114;50.970;4.962;2023-08-21T03:10:12;9.48;;;2.67;;
19903;SDS011;10114;50.970;4.962;2023-08-21T03:12:37;13.75;;;3.25;;
19903;SDS011;10114;50.970;4.962;2023-08-21T03:15:04;10.90;;;3.25;;
19903;SDS011;10114;50.970;4.962;2023-08-21T03:17:30;13.02;;;3.40;;
19903;SDS011;10114;50.970;4.962;2023-08-21T03:19:56;9.57;;;3.90;;
19903;SDS011;10114;50.970;4.962;2023-08-21T03:22:22;10.85;;;3.10;;
19903;SDS011;10114;50.970;4.962;2023-08-21T03:24:48;10.10;;;2.65;;
19903;SDS011;10114;50.970;4.962;2023-08-21T03:27:18;12.10;;;3.10;;
19903;SDS011;10114;50.970;4.962;2023-08-21T03:29:44;8.25;;;2.30;;
19903;SDS011;10114;50.970;4.962;2023-08-21T03:32:16;7.65;;;2.88;;
19903;SDS011;10114;50.970;4.962;2023-08-21T03:34:42;12.70;;;3.60;;
19903;SDS011;10114;50.970;4.962;2023-08-21T03:37:08;10.00;;;3.42;;
19903;SDS011;10114;50.970;4.962;2023-08-21T03:39:34;7.97;;;2.78;;
19903;SDS011;10114;50.970;4.962;2023-08-21T03:42:00;9.52;;;3.25;;
19903;SDS011;10114;50.970;4.962;2023-08-21T03:44:26;9.10;;;2.65;;
19903;SDS011;10114;50.970;4.962;2023-08-21T03:46:52;13.90;;;2.97;;
19903;SDS011;10114;50.970;4.962;2023-08-21T03:49:18;12.45;;;3.22;;
19903;SDS011;10114;50.970;4.962;2023-08-21T03:51:44;10.43;;;2.80;;
19903;SDS011;10114;50.970;4.962;2023-08-21T03:54:10;9.38;;;3.20;;
19903;SDS011;10114;50.970;4.962;2023-08-21T03:56:36;9.07;;;3.40;;
19903;SDS011;10114;50.970;4.962;2023-08-21T03:59:02;8.82;;;3.30;;
19903;SDS011;10114;50.970;4.962;2023-08-21T04:01:28;10.00;;;3.17;;
19903;SDS011;10114;50.970;4.962;2023-08-21T04:03:54;9.77;;;3.67;;
19903;SDS011;10114;50.970;4.962;2023-08-21T04:06:20;12.10;;;3.80;;
19903;SDS011;10114;50.970;4.962;2023-08-21T04:08:46;10.60;;;3.38;;
19903;SDS011;10114;50.970;4.962;2023-08-21T04:11:12;12.18;;;3.25;;
19903;SDS011;10114;50.970;4.962;2023-08-21T04:13:38;11.07;;;3.60;;
19903;SDS011;10114;50.970;4.962;2023-08-21T04:16:04;8.93;;;3.08;;
19903;SDS011;10114;50.970;4.962;2023-08-21T04:18:31;11.25;;;3.25;;
19903;SDS011;10114;50.970;4.962;2023-08-21T04:20:57;12.23;;;3.45;;
19903;SDS011;10114;50.970;4.962;2023-08-21T04:23:23;9.75;;;3.30;;
19903;SDS011;10114;50.970;4.962;2023-08-21T04:25:49;13.32;;;3.80;;
19903;SDS011;10114;50.970;4.962;2023-08-21T04:28:15;10.95;;;2.97;;
19903;SDS011;10114;50.970;4.962;2023-08-21T04:30:41;7.18;;;3.25;;
19903;SDS011;10114;50.970;4.962;2023-08-21T04:33:07;11.98;;;3.03;;
19903;SDS011;10114;50.970;4.962;2023-08-21T04:35:37;9.32;;;3.25;;
19903;SDS011;10114;50.970;4.962;2023-08-21T04:38:03;9.60;;;3.25;;
19903;SDS011;10114;50.970;4.962;2023-08-21T04:40:29;8.73;;;2.90;;
19903;SDS011;10114;50.970;4.962;2023-08-21T04:42:55;7.93;;;3.15;;
19903;SDS011;10114;50.970;4.962;2023-08-21T04:45:21;10.25;;;3.05;;
19903;SDS011;10114;50.970;4.962;2023-08-21T04:47:47;11.45;;;3.35;;
19903;SDS011;10114;50.970;4.962;2023-08-21T04:50:13;8.57;;;3.38;;
19903;SDS011;10114;50.970;4.962;2023-08-21T04:52:40;10.00;;;3.35;;
19903;SDS011;10114;50.970;4.962;2023-08-21T04:55:06;9.00;;;3.30;;
19903;SDS011;10114;50.970;4.962;2023-08-21T04:57:33;12.10;;;3.10;;
19903;SDS011;10114;50.970;4.962;2023-08-21T04:59:59;9.32;;;3.13;;
19903;SDS011;10114;50.970;4.962;2023-08-21T05:02:25;11.23;;;3.78;;
19903;SDS011;10114;50.970;4.962;2023-08-21T05:04:51;8.07;;;3.97;;
19903;SDS011;10114;50.970;4.962;2023-08-21T05:07:17;13.90;;;4.45;;
19903;SDS011;10114;50.970;4.962;2023-08-21T05:09:43;11.57;;;3.72;;
19903;SDS011;10114;50.970;4.962;2023-08-21T05:12:09;14.05;;;3.80;;
19903;SDS011;10114;50.970;4.962;2023-08-21T05:14:35;9.50;;;3.50;;
19903;SDS011;10114;50.970;4.962;2023-08-21T05:17:02;8.80;;;3.63;;
19903;SDS011;10114;50.970;4.962;2023-08-21T05:19:28;12.00;;;3.78;;
19903;SDS011;10114;50.970;4.962;2023-08-21T05:21:54;8.90;;;3.30;;
19903;SDS011;10114;50.970;4.962;2023-08-21T05:24:20;11.25;;;4.43;;
19903;SDS011;10114;50.970;4.962;2023-08-21T05:26:46;12.20;;;3.78;;
19903;SDS011;10114;50.970;4.962;2023-08-21T05:29:12;12.00;;;4.47;;
19903;SDS011;10114;50.970;4.962;2023-08-21T05:31:38;10.73;;;3.70;;
19903;SDS011;10114;50.970;4.962;2023-08-21T05:34:04;11.98;;;3.67;;
19903;SDS011;10114;50.970;4.962;2023-08-21T05:36:30;11.60;;;4.68;;
19903;SDS011;10114;50.970;4.962;2023-08-21T05:38:56;16.98;;;4.57;;
19903;SDS011;10114;50.970;4.962;2023-08-21T05:41:23;8.65;;;4.28;;
19903;SDS011;10114;50.970;4.962;2023-08-21T05:43:49;11.70;;;4.57;;
19903;SDS011;10114;50.970;4.962;2023-08-21T05:46:15;14.13;;;5.32;;
19903;SDS011;10114;50.970;4.962;2023-08-21T05:48:41;14.32;;;4.78;;
19903;SDS011;10114;50.970;4.962;2023-08-21T05:51:07;14.90;;;4.60;;
19903;SDS011;10114;50.970;4.962;2023-08-21T05:53:33;13.35;;;4.40;;
19903;SDS011;10114;50.970;4.962;2023-08-21T05:55:59;8.70;;;3.58;;
19903;SDS011;10114;50.970;4.962;2023-08-21T05:58:25;8.80;;;4.57;;
19903;SDS011;10114;50.970;4.962;2023-08-21T06:00:55;8.90;;;3.88;;
19903;SDS011;10114;50.970;4.962;2023-08-21T06:03:21;11.85;;;5.43;;
19903;SDS011;10114;50.970;4.962;2023-08-21T06:05:47;12.45;;;4.53;;
19903;SDS011;10114;50.970;4.962;2023-08-21T06:08:13;13.32;;;4.63;;
19903;SDS011;10114;50.970;4.962;2023-08-21T06:10:39;12.40;;;4.03;;
19903;SDS011;10114;50.970;4.962;2023-08-21T06:13:05;11.27;;;4.03;;
19903;SDS011;10114;50.970;4.962;2023-08-21T06:15:32;13.55;;;4.15;;
19903;SDS011;10114;50.970;4.962;2023-08-21T06:17:58;12.65;;;4.50;;
19903;SDS011;10114;50.970;4.962;2023-08-21T06:20:25;11.38;;;4.70;;
19903;SDS011;10114;50.970;4.962;2023-08-21T06:22:51;12.48;;;4.30;;
19903;SDS011;10114;50.970;4.962;2023-08-21T06:25:17;15.40;;;4.22;;
19903;SDS011;10114;50.970;4.962;2023-08-21T06:27:44;12.52;;;3.83;;
19903;SDS011;10114;50.970;4.962;2023-08-21T06:30:10;13.93;;;3.83;;
19903;SDS011;10114;50.970;4.962;2023-08-21T06:32:36;9.15;;;4.10;;
19903;SDS011;10114;50.970;4.962;2023-08-21T06:35:02;17.90;;;4.28;;
19903;SDS011;10114;50.970;4.962;2023-08-21T06:37:28;10.38;;;3.88;;
19903;SDS011;10114;50.970;4.962;2023-08-21T06:39:54;16.70;;;4.15;;
19903;SDS011;10114;50.970;4.962;2023-08-21T06:42:20;12.05;;;4.13;;
19903;SDS011;10114;50.970;4.962;2023-08-21T06:44:46;11.27;;;3.88;;
19903;SDS011;10114;50.970;4.962;2023-08-21T06:47:12;9.60;;;3.58;;
19903;SDS011;10114;50.970;4.962;2023-08-21T06:49:38;14.45;;;3.45;;
19903;SDS011;10114;50.970;4.962;2023-08-21T06:52:04;9.32;;;3.38;;
19903;SDS011;10114;50.970;4.962;2023-08-21T06:54:31;9.75;;;3.30;;
19903;SDS011;10114;50.970;4.962;2023-08-21T06:56:57;11.13;;;2.97;;
19903;SDS011;10114;50.970;4.962;2023-08-21T06:59:23;12.57;;;3.70;;
19903;SDS011;10114;50.970;4.962;2023-08-21T07:01:49;10.38;;;3.28;;
19903;SDS011;10114;50.970;4.962;2023-08-21T07:04:16;8.70;;;2.92;;
19903;SDS011;10114;50.970;4.962;2023-08-21T07:06:42;7.78;;;3.13;;
19903;SDS011;10114;50.970;4.962;2023-08-21T07:09:08;6.05;;;2.05;;
19903;SDS011;10114;50.970;4.962;2023-08-21T07:11:35;10.07;;;2.42;;
19903;SDS011;10114;50.970;4.962;2023-08-21T07:14:01;13.52;;;2.60;;
19903;SDS011;10114;50.970;4.962;2023-08-21T07:16:27;8.93;;;2.90;;
19903;SDS011;10114;50.970;4.962;2023-08-21T07:18:53;11.02;;;2.83;;
19903;SDS011;10114;50.970;4.962;2023-08-21T07:21:19;8.43;;;2.95;;
19903;SDS011;10114;50.970;4.962;2023-08-21T07:23:45;9.57;;;3.00;;
19903;SDS011;10114;50.970;4.962;2023-08-21T07:26:11;13.10;;;3.38;;
19903;SDS011;10114;50.970;4.962;2023-08-21T07:28:37;7.82;;;2.50;;
19903;SDS011;10114;50.970;4.962;2023-08-21T07:31:03;10.55;;;2.85;;
19903;SDS011;10114;50.970;4.962;2023-08-21T07:33:29;10.90;;;2.67;;
19903;SDS011;10114;50.970;4.962;2023-08-21T07:35:59;10.88;;;2.58;;
19903;SDS011;10114;50.970;4.962;2023-08-21T07:38:26;8.57;;;2.03;;
19903;SDS011;10114;50.970;4.962;2023-08-21T07:41:01;10.88;;;2.38;;
19903;SDS011;10114;50.970;4.962;2023-08-21T07:43:27;4.95;;;1.90;;
19903;SDS011;10114;50.970;4.962;2023-08-21T07:45:53;7.70;;;2.13;;
19903;SDS011;10114;50.970;4.962;2023-08-21T07:48:19;10.35;;;2.40;;
19903;SDS011;10114;50.970;4.962;2023-08-21T07:50:52;4.88;;;1.80;;
19903;SDS011;10114;50.970;4.962;2023-08-21T07:53:18;11.45;;;2.38;;
19903;SDS011;10114;50.970;4.962;2023-08-21T07:55:44;8.63;;;2.42;;
19903;SDS011;10114;50.970;4.962;2023-08-21T07:58:11;7.15;;;2.22;;
19903;SDS011;10114;50.970;4.962;2023-08-21T08:00:37;8.15;;;1.88;;
19903;SDS011;10114;50.970;4.962;2023-08-21T08:03:04;10.13;;;2.58;;
19903;SDS011;10114;50.970;4.962;2023-08-21T08:05:30;6.10;;;1.98;;
19903;SDS011;10114;50.970;4.962;2023-08-21T08:07:56;9.25;;;1.90;;
19903;SDS011;10114;50.970;4.962;2023-08-21T08:10:23;11.32;;;2.10;;
19903;SDS011;10114;50.970;4.962;2023-08-21T08:12:49;7.25;;;2.00;;
19903;SDS011;10114;50.970;4.962;2023-08-21T08:15:16;7.03;;;1.70;;
19903;SDS011;10114;50.970;4.962;2023-08-21T08:17:42;8.43;;;1.80;;
19903;SDS011;10114;50.970;4.962;2023-08-21T08:20:08;6.30;;;1.80;;
19903;SDS011;10114;50.970;4.962;2023-08-21T08:22:34;8.07;;;1.80;;
19903;SDS011;10114;50.970;4.962;2023-08-21T08:25:00;9.82;;;2.50;;
19903;SDS011;10114;50.970;4.962;2023-08-21T08:27:26;7.93;;;1.90;;
19903;SDS011;10114;50.970;4.962;2023-08-21T08:29:52;8.57;;;1.98;;
19903;SDS011;10114;50.970;4.962;2023-08-21T08:32:18;13.20;;;2.40;;
19903;SDS011;10114;50.970;4.962;2023-08-21T08:34:44;9.63;;;1.95;;
19903;SDS011;10114;50.970;4.962;2023-08-21T08:37:11;12.52;;;2.25;;
19903;SDS011;10114;50.970;4.962;2023-08-21T08:39:37;8.65;;;2.22;;
19903;SDS011;10114;50.970;4.962;2023-08-21T08:42:05;9.05;;;2.28;;
19903;SDS011;10114;50.970;4.962;2023-08-21T08:44:31;12.18;;;2.08;;
19903;SDS011;10114;50.970;4.962;2023-08-21T08:47:00;7.72;;;2.33;;
19903;SDS011;10114;50.970;4.962;2023-08-21T08:49:27;9.00;;;1.60;;
19903;SDS011;10114;50.970;4.962;2023-08-21T08:51:53;14.27;;;1.85;;
19903;SDS011;10114;50.970;4.962;2023-08-21T08:54:20;10.20;;;2.28;;
19903;SDS011;10114;50.970;4.962;2023-08-21T08:56:46;12.00;;;2.05;;
19903;SDS011;10114;50.970;4.962;2023-08-21T08:59:12;8.18;;;1.90;;
19903;SDS011;10114;50.970;4.962;2023-08-21T09:01:39;7.15;;;2.13;;
19903;SDS011;10114;50.970;4.962;2023-08-21T09:04:06;11.80;;;2.05;;
19903;SDS011;10114;50.970;4.962;2023-08-21T09:06:32;5.88;;;1.70;;
19903;SDS011;10114;50.970;4.962;2023-08-21T09:08:58;6.13;;;1.40;;
19903;SDS011;10114;50.970;4.962;2023-08-21T09:11:25;11.52;;;1.88;;
19903;SDS011;10114;50.970;4.962;2023-08-21T09:13:52;9.70;;;1.80;;
19903;SDS011;10114;50.970;4.962;2023-08-21T09:16:19;8.23;;;1.20;;
19903;SDS011;10114;50.970;4.962;2023-08-21T09:18:49;6.97;;;1.50;;
19903;SDS011;10114;50.970;4.962;2023-08-21T09:21:18;6.63;;;1.45;;
19903;SDS011;10114;50.970;4.962;2023-08-21T09:23:44;9.93;;;2.10;;
19903;SDS011;10114;50.970;4.962;2023-08-21T09:26:11;6.20;;;1.40;;
19903;SDS011;10114;50.970;4.962;2023-08-21T09:28:44;9.05;;;1.58;;
19903;SDS011;10114;50.970;4.962;2023-08-21T09:31:10;8.35;;;1.45;;
19903;SDS011;10114;50.970;4.962;2023-08-21T09:33:36;6.15;;;1.52;;
19903;SDS011;10114;50.970;4.962;2023-08-21T09:36:03;6.93;;;1.83;;
19903;SDS011;10114;50.970;4.962;2023-08-21T09:38:33;7.20;;;1.70;;
19903;SDS011;10114;50.970;4.962;2023-08-21T09:41:00;7.65;;;1.90;;
19903;SDS011;10114;50.970;4.962;2023-08-21T09:43:26;9.90;;;1.60;;
19903;SDS011;10114;50.970;4.962;2023-08-21T09:45:53;8.15;;;1.70;;
19903;SDS011;10114;50.970;4.962;2023-08-21T09:48:23;7.10;;;1.40;;
19903;SDS011;10114;50.970;4.962;2023-08-21T09:50:50;7.85;;;1.63;;
19903;SDS011;10114;50.970;4.962;2023-08-21T09:53:17;5.38;;;1.10;;
19903;SDS011;10114;50.970;4.962;2023-08-21T09:55:43;7.00;;;1.85;;
19903;SDS011;10114;50.970;4.962;2023-08-21T09:58:09;8.25;;;1.70;;
19903;SDS011;10114;50.970;4.962;2023-08-21T10:00:36;8.82;;;1.23;;
19903;SDS011;10114;50.970;4.962;2023-08-21T10:03:04;8.85;;;2.05;;
19903;SDS011;10114;50.970;4.962;2023-08-21T10:05:33;8.05;;;1.60;;
19903;SDS011;10114;50.970;4.962;2023-08-21T10:08:00;8.77;;;1.50;;
19903;SDS011;10114;50.970;4.962;2023-08-21T10:10:30;8.52;;;1.17;;
19903;SDS011;10114;50.970;4.962;2023-08-21T10:12:57;7.32;;;1.30;;
19903;SDS011;10114;50.970;4.962;2023-08-21T10:15:23;8.75;;;1.42;;
19903;SDS011;10114;50.970;4.962;2023-08-21T10:17:50;6.70;;;1.55;;
19903;SDS011;10114;50.970;4.962;2023-08-21T10:20:20;6.60;;;1.20;;
19903;SDS011;10114;50.970;4.962;2023-08-21T10:22:49;7.75;;;1.45;;
19903;SDS011;10114;50.970;4.962;2023-08-21T10:27:42;11.10;;;1.83;;
19903;SDS011;10114;50.970;4.962;2023-08-21T10:30:15;7.82;;;1.73;;
19903;SDS011;10114;50.970;4.962;2023-08-21T10:32:48;4.18;;;1.10;;
19903;SDS011;10114;50.970;4.962;2023-08-21T10:35:15;11.15;;;1.73;;
19903;SDS011;10114;50.970;4.962;2023-08-21T10:43:41;5.78;;;1.40;;
19903;SDS011;10114;50.970;4.962;2023-08-21T10:46:08;6.57;;;1.33;;
19903;SDS011;10114;50.970;4.962;2023-08-21T10:48:35;8.02;;;1.42;;
19903;SDS011;10114;50.970;4.962;2023-08-21T10:51:01;10.02;;;1.55;;
19903;SDS011;10114;50.970;4.962;2023-08-21T10:53:28;5.88;;;1.30;;
19903;SDS011;10114;50.970;4.962;2023-08-21T10:55:55;8.23;;;1.58;;
19903;SDS011;10114;50.970;4.962;2023-08-21T10:58:21;9.93;;;1.80;;
19903;SDS011;10114;50.970;4.962;2023-08-21T11:00:47;6.50;;;1.23;;
19903;SDS011;10114;50.970;4.962;2023-08-21T11:03:21;7.20;;;1.50;;
19903;SDS011;10114;50.970;4.962;2023-08-21T11:05:59;6.38;;;1.38;;
19903;SDS011;10114;50.970;4.962;2023-08-21T11:08:25;6.07;;;1.30;;
19903;SDS011;10114;50.970;4.962;2023-08-21T11:10:51;10.75;;;2.25;;
19903;SDS011;10114;50.970;4.962;2023-08-21T11:13:18;8.88;;;1.42;;
19903;SDS011;10114;50.970;4.962;2023-08-21T11:15:45;4.95;;;1.17;;
19903;SDS011;10114;50.970;4.962;2023-08-21T11:18:11;7.05;;;1.40;;
19903;SDS011;10114;50.970;4.962;2023-08-21T11:20:37;5.93;;;1.35;;
19903;SDS011;10114;50.970;4.962;2023-08-21T11:23:04;6.20;;;1.50;;
19903;SDS011;10114;50.970;4.962;2023-08-21T11:25:32;6.28;;;1.33;;
19903;SDS011;10114;50.970;4.962;2023-08-21T11:27:58;8.23;;;1.70;;
19903;SDS011;10114;50.970;4.962;2023-08-21T11:30:24;7.35;;;1.63;;
19903;SDS011;10114;50.970;4.962;2023-08-21T11:35:31;10.38;;;1.50;;
19903;SDS011;10114;50.970;4.962;2023-08-21T11:37:57;5.90;;;1.30;;
19903;SDS011;10114;50.970;4.962;2023-08-21T11:40:23;6.35;;;1.30;;
19903;SDS011;10114;50.970;4.962;2023-08-21T11:42:51;6.63;;;1.60;;
19903;SDS011;10114;50.970;4.962;2023-08-21T11:45:20;5.53;;;1.10;;
19903;SDS011;10114;50.970;4.962;2023-08-21T11:47:46;8.07;;;1.75;;
19903;SDS011;10114;50.970;4.962;2023-08-21T11:50:14;8.07;;;1.35;;
19903;SDS011;10114;50.970;4.962;2023-08-21T11:52:43;6.20;;;1.67;;
19903;SDS011;10114;50.970;4.962;2023-08-21T11:55:09;7.20;;;1.73;;
19903;SDS011;10114;50.970;4.962;2023-08-21T11:57:51;6.28;;;1.65;;
19903;SDS011;10114;50.970;4.962;2023-08-21T12:00:18;5.38;;;1.40;;
19903;SDS011;10114;50.970;4.962;2023-08-21T12:02:57;6.80;;;1.42;;
19903;SDS011;10114;50.970;4.962;2023-08-21T12:05:23;8.05;;;1.30;;
19903;SDS011;10114;50.970;4.962;2023-08-21T12:07:49;5.63;;;1.58;;
19903;SDS011;10114;50.970;4.962;2023-08-21T12:10:22;6.43;;;1.52;;
19903;SDS011;10114;50.970;4.962;2023-08-21T12:12:48;9.65;;;1.70;;
19903;SDS011;10114;50.970;4.962;2023-08-21T12:15:14;7.32;;;1.42;;
19903;SDS011;10114;50.970;4.962;2023-08-21T12:17:40;5.07;;;1.40;;
19903;SDS011;10114;50.970;4.962;2023-08-21T12:20:06;8.55;;;1.58;;
19903;SDS011;10114;50.970;4.962;2023-08-21T12:22:35;3.80;;;1.30;;
19903;SDS011;10114;50.970;4.962;2023-08-21T12:25:01;7.03;;;1.90;;
19903;SDS011;10114;50.970;4.962;2023-08-21T12:27:29;4.28;;;1.30;;
19903;SDS011;10114;50.970;4.962;2023-08-21T12:29:55;6.57;;;1.40;;
19903;SDS011;10114;50.970;4.962;2023-08-21T12:32:21;5.57;;;1.42;;
19903;SDS011;10114;50.970;4.962;2023-08-21T12:34:47;6.25;;;1.30;;
19903;SDS011;10114;50.970;4.962;2023-08-21T12:37:13;7.03;;;2.35;;
19903;SDS011;10114;50.970;4.962;2023-08-21T12:39:39;7.05;;;1.70;;
19903;SDS011;10114;50.970;4.962;2023-08-21T12:42:05;5.70;;;1.30;;
19903;SDS011;10114;50.970;4.962;2023-08-21T12:44:33;5.97;;;1.40;;
19903;SDS011;10114;50.970;4.962;2023-08-21T12:46:59;7.32;;;1.55;;
19903;SDS011;10114;50.970;4.962;2023-08-21T12:49:25;4.07;;;1.17;;
19903;SDS011;10114;50.970;4.962;2023-08-21T12:51:51;7.70;;;1.52;;
19903;SDS011;10114;50.970;4.962;2023-08-21T12:54:17;8.65;;;2.08;;
19903;SDS011;10114;50.970;4.962;2023-08-21T12:56:43;4.28;;;1.20;;
19903;SDS011;10114;50.970;4.962;2023-08-21T12:59:09;8.90;;;1.45;;
19903;SDS011;10114;50.970;4.962;2023-08-21T13:01:35;5.05;;;1.23;;
19903;SDS011;10114;50.970;4.962;2023-08-21T13:04:02;8.85;;;1.67;;
19903;SDS011;10114;50.970;4.962;2023-08-21T13:06:28;4.40;;;1.20;;
19903;SDS011;10114;50.970;4.962;2023-08-21T13:08:54;5.95;;;1.48;;
19903;SDS011;10114;50.970;4.962;2023-08-21T13:11:20;6.20;;;2.10;;
19903;SDS011;10114;50.970;4.962;2023-08-21T13:13:46;5.18;;;1.40;;
19903;SDS011;10114;50.970;4.962;2023-08-21T13:16:13;6.43;;;1.50;;
19903;SDS011;10114;50.970;4.962;2023-08-21T13:18:39;6.57;;;1.30;;
19903;SDS011;10114;50.970;4.962;2023-08-21T13:21:05;7.05;;;1.35;;
19903;SDS011;10114;50.970;4.962;2023-08-21T13:23:31;6.00;;;1.80;;
19903;SDS011;10114;50.970;4.962;2023-08-21T13:25:59;7.88;;;1.60;;
19903;SDS011;10114;50.970;4.962;2023-08-21T13:28:25;3.45;;;1.33;;
19903;SDS011;10114;50.970;4.962;2023-08-21T13:30:51;8.73;;;1.65;;
19903;SDS011;10114;50.970;4.962;2023-08-21T13:33:20;7.60;;;1.67;;
19903;SDS011;10114;50.970;4.962;2023-08-21T13:35:46;6.38;;;1.55;;
19903;SDS011;10114;50.970;4.962;2023-08-21T13:38:12;7.38;;;1.40;;
19903;SDS011;10114;50.970;4.962;2023-08-21T13:40:38;5.70;;;1.40;;
19903;SDS011;10114;50.970;4.962;2023-08-21T13:43:05;5.93;;;1.40;;
19903;SDS011;10114;50.970;4.962;2023-08-21T13:45:32;8.57;;;1.65;;
19903;SDS011;10114;50.970;4.962;2023-08-21T13:47:58;5.72;;;1.42;;
19903;SDS011;10114;50.970;4.962;2023-08-21T13:50:24;6.68;;;1.50;;
19903;SDS011;10114;50.970;4.962;2023-08-21T13:52:50;9.07;;;1.92;;
19903;SDS011;10114;50.970;4.962;2023-08-21T13:55:16;4.63;;;1.20;;
19903;SDS011;10114;50.970;4.962;2023-08-21T13:57:43;4.43;;;1.23;;
19903;SDS011;10114;50.970;4.962;2023-08-21T14:00:09;6.13;;;1.77;;
19903;SDS011;10114;50.970;4.962;2023-08-21T14:02:39;7.60;;;1.45;;
19903;SDS011;10114;50.970;4.962;2023-08-21T14:05:06;6.90;;;1.40;;
19903;SDS011;10114;50.970;4.962;2023-08-21T14:07:32;5.78;;;1.65;;
19903;SDS011;10114;50.970;4.962;2023-08-21T14:09:58;5.38;;;1.40;;
19903;SDS011;10114;50.970;4.962;2023-08-21T14:12:25;5.40;;;1.20;;
19903;SDS011;10114;50.970;4.962;2023-08-21T14:14:51;5.75;;;1.20;;
19903;SDS011;10114;50.970;4.962;2023-08-21T14:17:17;5.97;;;1.50;;
19903;SDS011;10114;50.970;4.962;2023-08-21T14:19:43;4.65;;;1.25;;
19903;SDS011;10114;50.970;4.962;2023-08-21T14:22:09;4.25;;;1.08;;
19903;SDS011;10114;50.970;4.962;2023-08-21T14:24:35;6.85;;;1.50;;
19903;SDS011;10114;50.970;4.962;2023-08-21T14:27:01;4.47;;;1.05;;
19903;SDS011;10114;50.970;4.962;2023-08-21T14:29:27;5.70;;;1.17;;
19903;SDS011;10114;50.970;4.962;2023-08-21T14:31:53;3.97;;;1.20;;
19903;SDS011;10114;50.970;4.962;2023-08-21T14:34:19;3.75;;;1.00;;
19903;SDS011;10114;50.970;4.962;2023-08-21T14:36:47;4.45;;;1.17;;
19903;SDS011;10114;50.970;4.962;2023-08-21T14:39:13;4.25;;;1.20;;
19903;SDS011;10114;50.970;4.962;2023-08-21T14:41:42;5.93;;;1.10;;
19903;SDS011;10114;50.970;4.962;2023-08-21T14:44:09;4.45;;;1.00;;
19903;SDS011;10114;50.970;4.962;2023-08-21T14:46:35;6.97;;;1.50;;
19903;SDS011;10114;50.970;4.962;2023-08-21T14:49:01;3.95;;;1.55;;
19903;SDS011;10114;50.970;4.962;2023-08-21T14:51:27;4.93;;;1.30;;
19903;SDS011;10114;50.970;4.962;2023-08-21T14:53:54;4.43;;;1.20;;
19903;SDS011;10114;50.970;4.962;2023-08-21T14:56:20;5.25;;;1.00;;
19903;SDS011;10114;50.970;4.962;2023-08-21T14:58:47;2.63;;;0.95;;